sensor_id;sensor_type;location;lat;lon;timestamp;pressure;altitude;pressure_sealevel;temperature;humidity
51287;BME280;37364;46.974;18.916;2023-02-19T00:00:35;152060.72;;;6.80;100.00
51287;BME280;37364;46.974;18.916;2023-02-19T00:03:16;152063.34;;;6.81;100.00
51287;BME280;37364;46.974;18.916;2023-02-19T00:05:50;152081.38;;;6.88;100.00
51287;BME280;37364;46.974;18.916;2023-02-19T00:08:21;152084.00;;;6.89;100.00
51287;BME280;37364;46.974;18.916;2023-02-19T00:10:51;152072.38;;;6.84;100.00
51287;BME280;37364;46.974;18.916;2023-02-19T00:13:22;152068.50;;;6.83;100.00
51287;BME280;37364;46.974;18.916;2023-02-19T00:15:53;152129.19;;;7.07;100.00
51287;BME280;37364;46.974;18.916;2023-02-19T00:18:23;152085.28;;;6.89;100.00
51287;BME280;37364;46.974;18.916;2023-02-19T00:20:57;152081.38;;;6.88;100.00
51287;BME280;37364;46.974;18.916;2023-02-19T00:23:29;152056.84;;;6.78;100.00
51287;BME280;37364;46.974;18.916;2023-02-19T00:26:01;152055.56;;;6.78;100.00
51287;BME280;37364;46.974;18.916;2023-02-19T00:28:45;152036.19;;;6.70;100.00
51287;BME280;37364;46.974;18.916;2023-02-19T00:31:18;152041.38;;;6.72;100.00
51287;BME280;37364;46.974;18.916;2023-02-19T00:33:51;152067.22;;;6.82;100.00
51287;BME280;37364;46.974;18.916;2023-02-19T00:36:26;152077.53;;;6.86;100.00
51287;BME280;37364;46.974;18.916;2023-02-19T00:38:58;152085.28;;;6.89;100.00
51287;BME280;37364;46.974;18.916;2023-02-19T00:41:28;152074.94;;;6.85;100.00
51287;BME280;37364;46.974;18.916;2023-02-19T00:44:00;152158.88;;;7.19;100.00
51287;BME280;37364;46.974;18.916;2023-02-19T00:46:33;152162.75;;;7.20;100.00
51287;BME280;37364;46.974;18.916;2023-02-19T00:49:06;152166.66;;;7.22;100.00
51287;BME280;37364;46.974;18.916;2023-02-19T00:51:40;152198.91;;;7.35;100.00
51287;BME280;37364;46.974;18.916;2023-02-19T00:54:10;152178.25;;;7.26;100.00
51287;BME280;37364;46.974;18.916;2023-02-19T00:56:41;152135.63;;;7.09;100.00
51287;BME280;37364;46.974;18.916;2023-02-19T00:59:11;152139.50;;;7.11;100.00
51287;BME280;37364;46.974;18.916;2023-02-19T01:01:43;152180.88;;;7.27;100.00
51287;BME280;37364;46.974;18.916;2023-02-19T01:04:14;152175.69;;;7.25;100.00
51287;BME280;37364;46.974;18.916;2023-02-19T01:06:47;152187.31;;;7.30;100.00
51287;BME280;37364;46.974;18.916;2023-02-19T01:09:19;152202.81;;;7.36;100.00
51287;BME280;37364;46.974;18.916;2023-02-19T01:11:49;152233.78;;;7.48;100.00
51287;BME280;37364;46.974;18.916;2023-02-19T01:14:20;152237.69;;;7.50;100.00
51287;BME280;37364;46.974;18.916;2023-02-19T01:16:50;152233.78;;;7.48;100.00
51287;BME280;37364;46.974;18.916;2023-02-19T01:19:21;152242.84;;;7.52;100.00
51287;BME280;37364;46.974;18.916;2023-02-19T01:21:55;152368.22;;;8.02;100.00
51287;BME280;37364;46.974;18.916;2023-02-19T01:24:28;152413.44;;;8.20;100.00
51287;BME280;37364;46.974;18.916;2023-02-19T01:26:59;152361.72;;;7.99;100.00
51287;BME280;37364;46.974;18.916;2023-02-19T01:29:30;152378.53;;;8.06;100.00
51287;BME280;37364;46.974;18.916;2023-02-19T01:32:00;152353.97;;;7.96;100.00
51287;BME280;37364;46.974;18.916;2023-02-19T01:34:31;152286.78;;;7.69;100.00
51287;BME280;37364;46.974;18.916;2023-02-19T01:37:05;152233.78;;;7.48;100.00
51287;BME280;37364;46.974;18.916;2023-02-19T01:39:39;152186.03;;;7.29;100.00
51287;BME280;37364;46.974;18.916;2023-02-19T01:42:13;152064.63;;;6.81;100.00
51287;BME280;37364;46.974;18.916;2023-02-19T01:47:53;151967.78;;;6.43;100.00
51287;BME280;37364;46.974;18.916;2023-02-19T01:50:27;151936.81;;;6.30;100.00
51287;BME280;37364;46.974;18.916;2023-02-19T01:53:02;151952.28;;;6.37;100.00
51287;BME280;37364;46.974;18.916;2023-02-19T01:55:35;151967.78;;;6.43;100.00
51287;BME280;37364;46.974;18.916;2023-02-19T01:58:07;151961.34;;;6.40;100.00
51287;BME280;37364;46.974;18.916;2023-02-19T02:00:40;151957.44;;;6.39;100.00
51287;BME280;37364;46.974;18.916;2023-02-19T02:03:11;151962.63;;;6.41;100.00
51287;BME280;37364;46.974;18.916;2023-02-19T02:05:49;151976.81;;;6.46;100.00
51287;BME280;37364;46.974;18.916;2023-02-19T02:08:25;151966.50;;;6.42;100.00
51287;BME280;37364;46.974;18.916;2023-02-19T02:11:08;151972.94;;;6.45;100.00
51287;BME280;37364;46.974;18.916;2023-02-19T02:13:39;151953.63;;;6.37;100.00
51287;BME280;37364;46.974;18.916;2023-02-19T02:16:22;151945.84;;;6.34;100.00
51287;BME280;37364;46.974;18.916;2023-02-19T02:18:58;151932.94;;;6.29;100.00
51287;BME280;37364;46.974;18.916;2023-02-19T02:27:52;151890.38;;;6.12;100.00
51287;BME280;37364;46.974;18.916;2023-02-19T02:33:27;151856.81;;;5.99;100.00
51287;BME280;37364;46.974;18.916;2023-02-19T02:36:02;151846.44;;;5.94;100.00
51287;BME280;37364;46.974;18.916;2023-02-19T02:38:38;151828.34;;;5.87;100.00
51287;BME280;37364;46.974;18.916;2023-02-19T02:41:10;151801.28;;;5.77;100.00
51287;BME280;37364;46.974;18.916;2023-02-19T02:43:43;151811.59;;;5.81;100.00
51287;BME280;37364;46.974;18.916;2023-02-19T02:46:18;151797.41;;;5.75;100.00
51287;BME280;37364;46.974;18.916;2023-02-19T02:48:56;151830.97;;;5.88;100.00
51287;BME280;37364;46.974;18.916;2023-02-19T02:51:31;151880.06;;;6.08;100.00
51287;BME280;37364;46.974;18.916;2023-02-19T02:54:12;151926.50;;;6.26;100.00
51287;BME280;37364;46.974;18.916;2023-02-19T02:56:58;151935.53;;;6.30;100.00
51287;BME280;37364;46.974;18.916;2023-02-19T02:59:36;151932.94;;;6.29;100.00
51287;BME280;37364;46.974;18.916;2023-02-19T03:02:12;151957.44;;;6.39;100.00
51287;BME280;37364;46.974;18.916;2023-02-19T03:04:49;152151.16;;;7.16;100.00
51287;BME280;37364;46.974;18.916;2023-02-19T03:07:37;152171.81;;;7.24;100.00
51287;BME280;37364;46.974;18.916;2023-02-19T03:10:09;152133.06;;;7.08;100.00
51287;BME280;37364;46.974;18.916;2023-02-19T03:12:44;152135.63;;;7.09;100.00
51287;BME280;37364;46.974;18.916;2023-02-19T03:15:30;152162.75;;;7.20;100.00
51287;BME280;37364;46.974;18.916;2023-02-19T03:18:15;152157.59;;;7.18;100.00
51287;BME280;37364;46.974;18.916;2023-02-19T03:21:04;152183.41;;;7.28;100.00
51287;BME280;37364;46.974;18.916;2023-02-19T03:23:39;152153.72;;;7.17;100.00
51287;BME280;37364;46.974;18.916;2023-02-19T03:26:24;152109.81;;;6.99;100.00
51287;BME280;37364;46.974;18.916;2023-02-19T03:28:56;152077.53;;;6.86;100.00
51287;BME280;37364;46.974;18.916;2023-02-19T03:31:43;152020.72;;;6.64;100.00
51287;BME280;37364;46.974;18.916;2023-02-19T03:34:17;151980.69;;;6.48;100.00
51287;BME280;37364;46.974;18.916;2023-02-19T03:36:59;151941.97;;;6.32;100.00
51287;BME280;37364;46.974;18.916;2023-02-19T03:39:32;151935.53;;;6.30;100.00
51287;BME280;37364;46.974;18.916;2023-02-19T03:42:19;151926.50;;;6.26;100.00
51287;BME280;37364;46.974;18.916;2023-02-19T03:44:59;151898.09;;;6.15;100.00
51287;BME280;37364;46.974;18.916;2023-02-19T03:47:41;151880.06;;;6.08;100.00
51287;BME280;37364;46.974;18.916;2023-02-19T03:50:20;151850.38;;;5.96;100.00
51287;BME280;37364;46.974;18.916;2023-02-19T03:53:00;151843.84;;;5.93;100.00
51287;BME280;37364;46.974;18.916;2023-02-19T03:55:38;151812.88;;;5.81;100.00
51287;BME280;37364;46.974;18.916;2023-02-19T03:58:16;151797.41;;;5.75;100.00
51287;BME280;37364;46.974;18.916;2023-02-19T04:00:53;151789.66;;;5.72;100.00
51287;BME280;37364;46.974;18.916;2023-02-19T04:03:32;151789.66;;;5.72;100.00
51287;BME280;37364;46.974;18.916;2023-02-19T04:06:09;151794.81;;;5.74;100.00
51287;BME280;37364;46.974;18.916;2023-02-19T04:08:47;151815.50;;;5.82;100.00
51287;BME280;37364;46.974;18.916;2023-02-19T04:11:20;151805.13;;;5.78;100.00
51287;BME280;37364;46.974;18.916;2023-02-19T04:14:00;151783.22;;;5.69;100.00
51287;BME280;37364;46.974;18.916;2023-02-19T04:16:36;151765.13;;;5.62;100.00
51287;BME280;37364;46.974;18.916;2023-02-19T04:19:11;151762.59;;;5.61;100.00
51287;BME280;37364;46.974;18.916;2023-02-19T04:21:43;151758.69;;;5.60;100.00
51287;BME280;37364;46.974;18.916;2023-02-19T04:24:20;151790.97;;;5.72;100.00
51287;BME280;37364;46.974;18.916;2023-02-19T04:26:52;151802.56;;;5.77;100.00
51287;BME280;37364;46.974;18.916;2023-02-19T04:29:23;151812.88;;;5.81;100.00
51287;BME280;37364;46.974;18.916;2023-02-19T04:31:53;151834.78;;;5.90;100.00
51287;BME280;37364;46.974;18.916;2023-02-19T04:34:24;151858.09;;;5.99;100.00
51287;BME280;37364;46.974;18.916;2023-02-19T04:36:54;151863.25;;;6.01;100.00
51287;BME280;37364;46.974;18.916;2023-02-19T04:39:28;151889.03;;;6.11;100.00
51287;BME280;37364;46.974;18.916;2023-02-19T04:41:58;151913.56;;;6.21;100.00
51287;BME280;37364;46.974;18.916;2023-02-19T04:44:29;151918.72;;;6.23;100.00
51287;BME280;37364;46.974;18.916;2023-02-19T04:47:00;151931.66;;;6.28;100.00
51287;BME280;37364;46.974;18.916;2023-02-19T04:49:30;151954.91;;;6.38;100.00
51287;BME280;37364;46.974;18.916;2023-02-19T04:52:02;151965.22;;;6.42;100.00
51287;BME280;37364;46.974;18.916;2023-02-19T04:54:35;151944.56;;;6.33;100.00
51287;BME280;37364;46.974;18.916;2023-02-19T04:57:06;151948.47;;;6.35;100.00
51287;BME280;37364;46.974;18.916;2023-02-19T04:59:36;151951.00;;;6.36;100.00
51287;BME280;37364;46.974;18.916;2023-02-19T05:02:07;151966.50;;;6.42;100.00
51287;BME280;37364;46.974;18.916;2023-02-19T05:04:37;151960.06;;;6.40;100.00
51287;BME280;37364;46.974;18.916;2023-02-19T05:07:08;151971.66;;;6.44;100.00
51287;BME280;37364;46.974;18.916;2023-02-19T05:09:41;151970.38;;;6.44;100.00
51287;BME280;37364;46.974;18.916;2023-02-19T05:12:12;151972.94;;;6.45;100.00
51287;BME280;37364;46.974;18.916;2023-02-19T05:14:44;151972.94;;;6.45;100.00
51287;BME280;37364;46.974;18.916;2023-02-19T05:17:15;151980.69;;;6.48;100.00
51287;BME280;37364;46.974;18.916;2023-02-19T05:19:45;151987.13;;;6.50;100.00
51287;BME280;37364;46.974;18.916;2023-02-19T05:22:16;151975.53;;;6.46;100.00
51287;BME280;37364;46.974;18.916;2023-02-19T05:24:49;151989.75;;;6.51;100.00
51287;BME280;37364;46.974;18.916;2023-02-19T05:27:20;151988.47;;;6.51;100.00
51287;BME280;37364;46.974;18.916;2023-02-19T05:29:50;151983.31;;;6.49;100.00
51287;BME280;37364;46.974;18.916;2023-02-19T05:32:21;151991.03;;;6.52;100.00
51287;BME280;37364;46.974;18.916;2023-02-19T05:34:52;151970.38;;;6.44;100.00
51287;BME280;37364;46.974;18.916;2023-02-19T05:37:23;151958.78;;;6.39;100.00
51287;BME280;37364;46.974;18.916;2023-02-19T05:39:56;151962.63;;;6.41;100.00
51287;BME280;37364;46.974;18.916;2023-02-19T05:42:27;151970.38;;;6.44;100.00
51287;BME280;37364;46.974;18.916;2023-02-19T05:44:57;151953.63;;;6.37;100.00
51287;BME280;37364;46.974;18.916;2023-02-19T05:47:28;151978.16;;;6.47;100.00
51287;BME280;37364;46.974;18.916;2023-02-19T05:49:58;151974.25;;;6.45;100.00
51287;BME280;37364;46.974;18.916;2023-02-19T05:52:29;151962.63;;;6.41;100.00
51287;BME280;37364;46.974;18.916;2023-02-19T05:55:03;151958.78;;;6.39;100.00
51287;BME280;37364;46.974;18.916;2023-02-19T05:57:39;151967.78;;;6.43;100.00
51287;BME280;37364;46.974;18.916;2023-02-19T06:00:11;151971.66;;;6.44;100.00
51287;BME280;37364;46.974;18.916;2023-02-19T06:02:42;151965.22;;;6.42;100.00
51287;BME280;37364;46.974;18.916;2023-02-19T06:05:13;151957.44;;;6.39;100.00
51287;BME280;37364;46.974;18.916;2023-02-19T06:07:44;151965.22;;;6.42;100.00
51287;BME280;37364;46.974;18.916;2023-02-19T06:10:19;151953.63;;;6.37;100.00
51287;BME280;37364;46.974;18.916;2023-02-19T06:12:51;151966.50;;;6.42;100.00
51287;BME280;37364;46.974;18.916;2023-02-19T06:15:22;151972.94;;;6.45;100.00
51287;BME280;37364;46.974;18.916;2023-02-19T06:17:53;151967.78;;;6.43;100.00
51287;BME280;37364;46.974;18.916;2023-02-19T06:20:27;151983.31;;;6.49;100.00
51287;BME280;37364;46.974;18.916;2023-02-19T06:22:59;151993.63;;;6.53;100.00
51287;BME280;37364;46.974;18.916;2023-02-19T06:25:32;152000.06;;;6.56;100.00
51287;BME280;37364;46.974;18.916;2023-02-19T06:28:03;151987.13;;;6.50;100.00
51287;BME280;37364;46.974;18.916;2023-02-19T06:30:37;152002.69;;;6.57;100.00
51287;BME280;37364;46.974;18.916;2023-02-19T06:33:10;152016.84;;;6.62;100.00
51287;BME280;37364;46.974;18.916;2023-02-19T06:35:41;152016.84;;;6.62;100.00
51287;BME280;37364;46.974;18.916;2023-02-19T06:38:11;152028.47;;;6.67;100.00
51287;BME280;37364;46.974;18.916;2023-02-19T06:40:44;152045.25;;;6.73;100.00
51287;BME280;37364;46.974;18.916;2023-02-19T06:43:15;152033.66;;;6.69;100.00
51287;BME280;37364;46.974;18.916;2023-02-19T06:45:45;152025.88;;;6.66;100.00
51287;BME280;37364;46.974;18.916;2023-02-19T06:48:16;152051.69;;;6.76;100.00
51287;BME280;37364;46.974;18.916;2023-02-19T06:50:47;152037.53;;;6.70;100.00
51287;BME280;37364;46.974;18.916;2023-02-19T06:53:19;152027.16;;;6.66;100.00
51287;BME280;37364;46.974;18.916;2023-02-19T06:55:58;152050.41;;;6.76;100.00
51287;BME280;37364;46.974;18.916;2023-02-19T06:58:30;152059.44;;;6.79;100.00
51287;BME280;37364;46.974;18.916;2023-02-19T07:01:01;152054.28;;;6.77;100.00
51287;BME280;37364;46.974;18.916;2023-02-19T07:03:32;152053.00;;;6.77;100.00
51287;BME280;37364;46.974;18.916;2023-02-19T07:06:04;152068.50;;;6.83;100.00
51287;BME280;37364;46.974;18.916;2023-02-19T07:08:37;152059.44;;;6.79;100.00
51287;BME280;37364;46.974;18.916;2023-02-19T07:11:10;152071.06;;;6.84;100.00
51287;BME280;37364;46.974;18.916;2023-02-19T07:13:41;152077.53;;;6.86;100.00
51287;BME280;37364;46.974;18.916;2023-02-19T07:16:12;152089.16;;;6.91;100.00
51287;BME280;37364;46.974;18.916;2023-02-19T07:18:44;152094.31;;;6.93;100.00
51287;BME280;37364;46.974;18.916;2023-02-19T07:21:15;152091.75;;;6.92;100.00
51287;BME280;37364;46.974;18.916;2023-02-19T07:23:46;152112.41;;;7.00;100.00
51287;BME280;37364;46.974;18.916;2023-02-19T07:26:20;152113.69;;;7.01;100.00
51287;BME280;37364;46.974;18.916;2023-02-19T07:28:51;152126.63;;;7.06;100.00
51287;BME280;37364;46.974;18.916;2023-02-19T07:31:23;152135.63;;;7.09;100.00
51287;BME280;37364;46.974;18.916;2023-02-19T07:33:56;152140.84;;;7.11;100.00
51287;BME280;37364;46.974;18.916;2023-02-19T07:36:26;152149.84;;;7.15;100.00
51287;BME280;37364;46.974;18.916;2023-02-19T07:38:58;152134.34;;;7.09;100.00
51287;BME280;37364;46.974;18.916;2023-02-19T07:41:31;152138.22;;;7.10;100.00
51287;BME280;37364;46.974;18.916;2023-02-19T07:44:02;152156.31;;;7.18;100.00
51287;BME280;37364;46.974;18.916;2023-02-19T07:46:33;152143.38;;;7.12;100.00
51287;BME280;37364;46.974;18.916;2023-02-19T07:49:03;152155.00;;;7.17;100.00
51287;BME280;37364;46.974;18.916;2023-02-19T07:51:34;152164.03;;;7.21;100.00
51287;BME280;37364;46.974;18.916;2023-02-19T07:54:06;152160.16;;;7.19;100.00
51287;BME280;37364;46.974;18.916;2023-02-19T07:56:40;152155.00;;;7.17;100.00
51287;BME280;37364;46.974;18.916;2023-02-19T07:59:10;152161.50;;;7.20;100.00
51287;BME280;37364;46.974;18.916;2023-02-19T08:01:42;152169.22;;;7.23;100.00
51287;BME280;37364;46.974;18.916;2023-02-19T08:04:24;152153.72;;;7.17;100.00
51287;BME280;37364;46.974;18.916;2023-02-19T08:06:55;152158.88;;;7.19;100.00
51287;BME280;37364;46.974;18.916;2023-02-19T08:09:26;152144.66;;;7.13;100.00
51287;BME280;37364;46.974;18.916;2023-02-19T08:11:59;152144.66;;;7.13;100.00
51287;BME280;37364;46.974;18.916;2023-02-19T08:14:42;152143.38;;;7.12;100.00
51287;BME280;37364;46.974;18.916;2023-02-19T08:17:12;152146.00;;;7.13;100.00
51287;BME280;37364;46.974;18.916;2023-02-19T08:19:42;152153.72;;;7.17;100.00
51287;BME280;37364;46.974;18.916;2023-02-19T08:22:13;152142.09;;;7.12;100.00
51287;BME280;37364;46.974;18.916;2023-02-19T08:24:44;152140.84;;;7.11;100.00
51287;BME280;37364;46.974;18.916;2023-02-19T08:27:17;152136.94;;;7.10;100.00
51287;BME280;37364;46.974;18.916;2023-02-19T08:29:47;152120.13;;;7.03;100.00
51287;BME280;37364;46.974;18.916;2023-02-19T08:32:18;152116.28;;;7.02;100.00
51287;BME280;37364;46.974;18.916;2023-02-19T08:34:49;152102.09;;;6.96;100.00
51287;BME280;37364;46.974;18.916;2023-02-19T08:37:48;152104.63;;;6.97;100.00
51287;BME280;37364;46.974;18.916;2023-02-19T08:40:43;152111.09;;;7.00;100.00
51287;BME280;37364;46.974;18.916;2023-02-19T08:43:18;152096.91;;;6.94;100.00
51287;BME280;37364;46.974;18.916;2023-02-19T08:45:51;152104.63;;;6.97;100.00
51287;BME280;37364;46.974;18.916;2023-02-19T08:48:23;152107.25;;;6.98;100.00
51287;BME280;37364;46.974;18.916;2023-02-19T08:51:09;152129.19;;;7.07;100.00
51287;BME280;37364;46.974;18.916;2023-02-19T08:53:46;152143.38;;;7.12;100.00
51287;BME280;37364;46.974;18.916;2023-02-19T08:56:19;152158.88;;;7.19;100.00
51287;BME280;37364;46.974;18.916;2023-02-19T08:58:54;152218.28;;;7.42;100.00
51287;BME280;37364;46.974;18.916;2023-02-19T09:01:25;152241.56;;;7.51;100.00
51287;BME280;37364;46.974;18.916;2023-02-19T09:03:56;152273.84;;;7.64;100.00
51287;BME280;37364;46.974;18.916;2023-02-19T09:06:26;152307.44;;;7.78;100.00
51287;BME280;37364;46.974;18.916;2023-02-19T09:08:57;152319.09;;;7.82;100.00
51287;BME280;37364;46.974;18.916;2023-02-19T09:11:27;152332.00;;;7.87;100.00
51287;BME280;37364;46.974;18.916;2023-02-19T09:14:00;152357.81;;;7.98;100.00
51287;BME280;37364;46.974;18.916;2023-02-19T09:16:33;152363.03;;;8.00;100.00
51287;BME280;37364;46.974;18.916;2023-02-19T09:19:04;152384.97;;;8.08;100.00
51287;BME280;37364;46.974;18.916;2023-02-19T09:21:35;152394.03;;;8.12;100.00
51287;BME280;37364;46.974;18.916;2023-02-19T09:24:08;152400.47;;;8.15;100.00
51287;BME280;37364;46.974;18.916;2023-02-19T09:26:39;152427.66;;;8.25;100.00
51287;BME280;37364;46.974;18.916;2023-02-19T09:29:13;152479.38;;;8.46;100.00
51287;BME280;37364;46.974;18.916;2023-02-19T09:31:44;152485.84;;;8.48;100.00
51287;BME280;37364;46.974;18.916;2023-02-19T09:34:15;152471.66;;;8.43;100.00
51287;BME280;37364;46.974;18.916;2023-02-19T09:36:47;152470.31;;;8.42;100.00
51287;BME280;37364;46.974;18.916;2023-02-19T09:39:20;152466.38;;;8.41;100.00
51287;BME280;37364;46.974;18.916;2023-02-19T09:41:52;152496.16;;;8.52;100.00
51287;BME280;37364;46.974;18.916;2023-02-19T09:44:33;152524.63;;;8.64;100.00
51287;BME280;37364;46.974;18.916;2023-02-19T09:47:15;152545.31;;;8.72;100.00
51287;BME280;37364;46.974;18.916;2023-02-19T09:49:53;152549.19;;;8.74;100.00
51287;BME280;37364;46.974;18.916;2023-02-19T09:52:32;152527.25;;;8.65;100.00
51287;BME280;37364;46.974;18.916;2023-02-19T09:55:14;152510.41;;;8.58;100.00
51287;BME280;37364;46.974;18.916;2023-02-19T09:57:59;152506.56;;;8.57;100.00
51287;BME280;37364;46.974;18.916;2023-02-19T10:00:36;152503.94;;;8.56;100.00
51287;BME280;37364;46.974;18.916;2023-02-19T10:03:11;152533.69;;;8.67;100.00
51287;BME280;37364;46.974;18.916;2023-02-19T10:05:44;152489.72;;;8.50;100.00
51287;BME280;37364;46.974;18.916;2023-02-19T10:08:18;152479.38;;;8.46;100.00
51287;BME280;37364;46.974;18.916;2023-02-19T10:10:49;152454.78;;;8.36;100.00
51287;BME280;37364;46.974;18.916;2023-02-19T10:13:23;152441.81;;;8.31;100.00
51287;BME280;37364;46.974;18.916;2023-02-19T10:16:04;152444.44;;;8.32;100.00
51287;BME280;37364;46.974;18.916;2023-02-19T10:18:40;152458.66;;;8.38;100.00
51287;BME280;37364;46.974;18.916;2023-02-19T10:21:15;152484.56;;;8.48;100.00
51287;BME280;37364;46.974;18.916;2023-02-19T10:23:49;152498.78;;;8.54;100.00
51287;BME280;37364;46.974;18.916;2023-02-19T10:26:22;152542.75;;;8.71;100.00
51287;BME280;37364;46.974;18.916;2023-02-19T10:28:53;152578.94;;;8.85;100.00
51287;BME280;37364;46.974;18.916;2023-02-19T10:31:30;152619.03;;;9.01;100.00
51287;BME280;37364;46.974;18.916;2023-02-19T10:34:01;152646.19;;;9.12;100.00
51287;BME280;37364;46.974;18.916;2023-02-19T10:36:36;152722.50;;;9.42;100.00
51287;BME280;37364;46.974;18.916;2023-02-19T10:39:30;152762.59;;;9.58;100.00
51287;BME280;37364;46.974;18.916;2023-02-19T10:42:05;152811.78;;;9.78;100.00
51287;BME280;37364;46.974;18.916;2023-02-19T10:44:47;152868.72;;;10.00;100.00
51287;BME280;37364;46.974;18.916;2023-02-19T10:47:31;152934.72;;;10.26;100.00
51287;BME280;37364;46.974;18.916;2023-02-19T10:50:26;152936.00;;;10.27;100.00
51287;BME280;37364;46.974;18.916;2023-02-19T10:53:20;152923.09;;;10.22;100.00
51287;BME280;37364;46.974;18.916;2023-02-19T10:56:10;153079.81;;;10.84;100.00
51287;BME280;37364;46.974;18.916;2023-02-19T10:58:43;153057.78;;;10.75;100.00
51287;BME280;37364;46.974;18.916;2023-02-19T11:01:18;153082.38;;;10.85;100.00
51287;BME280;37364;46.974;18.916;2023-02-19T11:04:15;153175.63;;;11.22;100.00
51287;BME280;37364;46.974;18.916;2023-02-19T11:07:07;153180.81;;;11.24;100.00
51287;BME280;37364;46.974;18.916;2023-02-19T11:09:39;153230.03;;;11.43;100.00
51287;BME280;37364;46.974;18.916;2023-02-19T11:12:13;153298.72;;;11.71;100.00
51287;BME280;37364;46.974;18.916;2023-02-19T11:14:53;153336.28;;;11.85;100.00
51287;BME280;37364;46.974;18.916;2023-02-19T11:17:25;153402.44;;;12.12;100.00
51287;BME280;37364;46.974;18.916;2023-02-19T11:20:03;153442.63;;;12.27;100.00
51287;BME280;37364;46.974;18.916;2023-02-19T11:22:37;153475.00;;;12.40;100.00
51287;BME280;37364;46.974;18.916;2023-02-19T11:25:19;153485.38;;;12.44;100.00
51287;BME280;37364;46.974;18.916;2023-02-19T11:28:03;153491.88;;;12.47;100.00
51287;BME280;37364;46.974;18.916;2023-02-19T11:30:40;153528.16;;;12.61;100.00
51287;BME280;37364;46.974;18.916;2023-02-19T11:33:26;153495.78;;;12.49;100.00
51287;BME280;37364;46.974;18.916;2023-02-19T11:36:27;153485.38;;;12.44;100.00
51287;BME280;37364;46.974;18.916;2023-02-19T11:39:03;153598.19;;;12.89;100.00
51287;BME280;37364;46.974;18.916;2023-02-19T11:42:17;153585.25;;;12.84;100.00
51287;BME280;37364;46.974;18.916;2023-02-19T11:45:02;153490.56;;;12.46;100.00
51287;BME280;37364;46.974;18.916;2023-02-19T11:50:51;153376.50;;;12.01;100.00
51287;BME280;37364;46.974;18.916;2023-02-19T11:53:32;153359.66;;;11.95;100.00
51287;BME280;37364;46.974;18.916;2023-02-19T11:56:19;153410.19;;;12.15;100.00
51287;BME280;37364;46.974;18.916;2023-02-19T11:59:19;153419.28;;;12.18;100.00
51287;BME280;37364;46.974;18.916;2023-02-19T12:02:31;153360.94;;;11.95;100.00
51287;BME280;37364;46.974;18.916;2023-02-19T12:05:19;153324.63;;;11.81;100.00
51287;BME280;37364;46.974;18.916;2023-02-19T12:08:07;153341.44;;;11.87;100.00
51287;BME280;37364;46.974;18.916;2023-02-19T12:10:57;153322.00;;;11.80;100.00
51287;BME280;37364;46.974;18.916;2023-02-19T12:13:48;153357.09;;;11.94;100.00
51287;BME280;37364;46.974;18.916;2023-02-19T12:16:30;153528.16;;;12.61;100.00
51287;BME280;37364;46.974;18.916;2023-02-19T12:19:36;153556.72;;;12.73;100.00
51287;BME280;37364;46.974;18.916;2023-02-19T12:22:26;153550.25;;;12.70;100.00
51287;BME280;37364;46.974;18.916;2023-02-19T12:25:34;153651.38;;;13.10;100.00
51287;BME280;37364;46.974;18.916;2023-02-19T12:31:51;153647.47;;;13.09;100.00
51287;BME280;37364;46.974;18.916;2023-02-19T12:35:04;153725.34;;;13.39;100.00
51287;BME280;37364;46.974;18.916;2023-02-19T12:37:43;153668.22;;;13.17;100.00
51287;BME280;37364;46.974;18.916;2023-02-19T12:40:34;153722.75;;;13.38;100.00
51287;BME280;37364;46.974;18.916;2023-02-19T12:43:14;153700.72;;;13.30;100.00
51287;BME280;37364;46.974;18.916;2023-02-19T12:45:59;153637.09;;;13.04;100.00
51287;BME280;37364;46.974;18.916;2023-02-19T12:48:44;153569.66;;;12.78;100.00
51287;BME280;37364;46.974;18.916;2023-02-19T12:51:20;153550.25;;;12.70;100.00
51287;BME280;37364;46.974;18.916;2023-02-19T12:53:57;153578.72;;;12.81;100.00
51287;BME280;37364;46.974;18.916;2023-02-19T12:56:31;153535.97;;;12.64;100.00
51287;BME280;37364;46.974;18.916;2023-02-19T12:59:08;153574.81;;;12.80;100.00
51287;BME280;37364;46.974;18.916;2023-02-19T13:01:45;153608.56;;;12.93;100.00
51287;BME280;37364;46.974;18.916;2023-02-19T13:04:31;153558.00;;;12.73;100.00
51287;BME280;37364;46.974;18.916;2023-02-19T13:07:08;153532.06;;;12.63;100.00
51287;BME280;37364;46.974;18.916;2023-02-19T13:09:46;153503.53;;;12.52;100.00
51287;BME280;37364;46.974;18.916;2023-02-19T13:12:22;153493.16;;;12.48;100.00
51287;BME280;37364;46.974;18.916;2023-02-19T13:14:56;153476.34;;;12.41;100.00
51287;BME280;37364;46.974;18.916;2023-02-19T13:17:36;153476.34;;;12.41;100.00
51287;BME280;37364;46.974;18.916;2023-02-19T13:20:19;153487.97;;;12.45;100.00
51287;BME280;37364;46.974;18.916;2023-02-19T13:22:59;153578.72;;;12.81;100.00
51287;BME280;37364;46.974;18.916;2023-02-19T13:25:55;153639.72;;;13.05;100.00
51287;BME280;37364;46.974;18.916;2023-02-19T13:28:43;153666.94;;;13.16;100.00
51287;BME280;37364;46.974;18.916;2023-02-19T13:31:36;153717.56;;;13.36;100.00
51287;BME280;37364;46.974;18.916;2023-02-19T13:34:14;153689.00;;;13.25;100.00
51287;BME280;37364;46.974;18.916;2023-02-19T13:36:52;153711.09;;;13.34;100.00
51287;BME280;37364;46.974;18.916;2023-02-19T13:39:24;153738.31;;;13.44;100.00
51287;BME280;37364;46.974;18.916;2023-02-19T13:41:57;153737.03;;;13.44;100.00